Time;durP1;ratioP1;P1;durP2;ratioP2;P2;SDS_P1;SDS_P2;PMS_P1;PMS_P2;Temp;Humidity;BMP_temperature;BMP_pressure;BME280_temperature;BME280_humidity;BME280_pressure;Samples;Min_cycle;Max_cycle;Signal;HPM_P1;HPM_P2
2022/12/06 00:02:10;;;;;;;18.00;10.00;;;5.20;99.90;;;;;;5070500;28;20509;-37
2022/12/06 00:04:36;;;;;;;19.50;10.77;;;5.30;99.90;;;;;;5070895;28;20072;-37
2022/12/06 00:07:02;;;;;;;16.90;9.45;;;5.30;99.90;;;;;;5049410;28;20055;-37
2022/12/06 00:09:31;;;;;;;14.82;8.80;;;5.30;99.90;;;;;;5070346;28;20040;-37
2022/12/06 00:11:57;;;;;;;14.50;8.05;;;5.20;99.90;;;;;;5066539;28;20040;-37
2022/12/06 00:14:23;;;;;;;17.58;7.60;;;5.30;99.90;;;;;;5070195;28;20044;-36
2022/12/06 00:16:50;;;;;;;11.95;7.90;;;5.30;99.90;;;;;;5070835;28;20486;-37
2022/12/06 00:19:18;;;;;;;11.32;6.70;;;5.30;99.90;;;;;;5069463;28;20033;-37
2022/12/06 00:21:46;;;;;;;12.80;7.70;;;5.20;99.90;;;;;;5070148;28;20066;-37
2022/12/06 00:24:14;;;;;;;13.57;7.60;;;5.20;99.90;;;;;;5066453;28;20070;-36
2022/12/06 00:26:43;;;;;;;17.92;8.52;;;5.30;99.90;;;;;;5070280;28;20075;-37
2022/12/06 00:29:19;;;;;;;12.80;8.07;;;5.20;99.90;;;;;;5066640;28;20072;-37
2022/12/06 00:31:45;;;;;;;13.13;7.43;;;5.30;99.90;;;;;;5069794;28;20032;-37
2022/12/06 00:34:11;;;;;;;15.02;7.70;;;5.30;99.90;;;;;;5070085;28;20097;-38
2022/12/06 00:36:39;;;;;;;13.25;8.18;;;5.30;99.90;;;;;;5064796;28;20040;-37
2022/12/06 00:39:08;;;;;;;15.25;7.97;;;5.20;99.90;;;;;;5069602;28;20075;-37
2022/12/06 00:41:34;;;;;;;12.98;7.50;;;5.30;99.90;;;;;;5069679;28;20103;-37
2022/12/06 00:44:00;;;;;;;14.88;7.50;;;5.20;99.90;;;;;;5070221;28;20037;-37
2022/12/06 00:46:28;;;;;;;9.57;7.50;;;5.20;99.90;;;;;;5066749;28;20486;-37
2022/12/06 00:48:56;;;;;;;11.65;7.40;;;5.20;99.90;;;;;;5069752;28;20037;-37
2022/12/06 00:51:23;;;;;;;15.05;7.55;;;5.20;99.90;;;;;;5070274;28;20729;-36
2022/12/06 00:53:50;;;;;;;14.02;7.75;;;5.20;99.90;;;;;;5070027;28;20497;-37
2022/12/06 00:56:17;;;;;;;14.95;7.03;;;5.20;99.90;;;;;;5069961;28;20482;-37
2022/12/06 00:58:43;;;;;;;12.63;7.25;;;5.30;99.90;;;;;;5067953;28;20039;-37
2022/12/06 01:01:12;;;;;;;10.93;7.18;;;5.20;99.90;;;;;;5065852;28;20386;-37
2022/12/06 01:03:39;;;;;;;13.07;7.90;;;5.30;99.90;;;;;;5070078;28;20039;-37
2022/12/06 01:06:08;;;;;;;14.00;7.75;;;5.20;99.90;;;;;;5069868;28;20032;-37
2022/12/06 01:08:35;;;;;;;14.27;7.70;;;5.30;99.90;;;;;;5069575;28;20036;-37
2022/12/06 01:11:02;;;;;;;14.73;7.65;;;5.20;99.90;;;;;;5069602;28;20375;-37
2022/12/06 01:13:29;;;;;;;14.27;6.88;;;5.20;99.90;;;;;;5070137;28;20037;-37
2022/12/06 01:15:55;;;;;;;13.77;6.70;;;5.20;99.90;;;;;;5071095;28;20124;-37
2022/12/06 01:18:21;;;;;;;13.50;6.85;;;5.20;99.90;;;;;;5069715;28;20031;-37
2022/12/06 01:20:47;;;;;;;14.65;7.07;;;5.20;99.90;;;;;;5067205;28;20037;-37
2022/12/06 01:23:13;;;;;;;10.90;6.70;;;5.20;99.90;;;;;;5069958;28;20082;-37
2022/12/06 01:25:48;;;;;;;12.25;6.40;;;5.10;99.90;;;;;;5065213;28;20062;-37
2022/12/06 01:28:14;;;;;;;16.35;7.07;;;5.10;99.90;;;;;;5068271;28;20047;-37
2022/12/06 01:30:40;;;;;;;11.93;6.35;;;5.10;99.90;;;;;;5069163;28;20036;-37
2022/12/06 01:33:06;;;;;;;11.65;6.43;;;5.10;99.90;;;;;;5067891;28;20052;-37
2022/12/06 01:35:31;;;;;;;10.75;6.28;;;5.10;99.90;;;;;;5068310;28;20041;-37
2022/12/06 01:37:57;;;;;;;13.50;6.07;;;5.10;99.90;;;;;;5068251;28;20035;-37
2022/12/06 01:40:23;;;;;;;11.93;5.65;;;5.10;99.90;;;;;;5066095;28;20068;-37
2022/12/06 01:42:48;;;;;;;9.48;5.50;;;5.10;99.90;;;;;;5069294;28;20527;-37
2022/12/06 01:45:14;;;;;;;9.95;5.05;;;5.10;99.90;;;;;;5066501;28;20032;-37
2022/12/06 01:47:42;;;;;;;15.57;5.57;;;5.10;99.90;;;;;;5069717;28;20482;-37
2022/12/06 01:50:36;;;;;;;15.32;6.15;;;5.10;99.90;;;;;;5068770;28;21204;-37
2022/12/06 01:53:05;;;;;;;;;;;5.00;99.90;;;;;;5070896;28;20056;-37
2022/12/06 01:55:35;;;;;;;10.18;5.35;;;5.10;99.90;;;;;;5073547;28;19932;-37
2022/12/06 01:58:08;;;;;;;10.65;5.43;;;5.00;99.90;;;;;;5073440;28;20439;-37
2022/12/06 02:00:34;;;;;;;12.63;5.67;;;5.00;99.90;;;;;;5072703;28;20444;-37
2022/12/06 02:03:01;;;;;;;15.25;5.82;;;5.00;99.90;;;;;;5073278;28;20524;-37
2022/12/06 02:05:29;;;;;;;8.85;5.13;;;5.00;99.90;;;;;;5071152;28;20036;-36
2022/12/06 02:07:57;;;;;;;15.40;6.15;;;5.00;99.90;;;;;;5072169;28;20032;-37
2022/12/06 02:10:23;;;;;;;10.80;5.70;;;5.00;99.90;;;;;;5072895;28;20522;-36
2022/12/06 02:12:53;;;;;;;12.18;6.07;;;5.10;99.90;;;;;;5068647;28;20067;-36
2022/12/06 02:15:27;;;;;;;8.82;5.30;;;5.00;99.90;;;;;;5072877;28;20485;-36
2022/12/06 02:17:58;;;;;;;;;;;5.10;99.90;;;;;;5066702;28;20482;-37
2022/12/06 02:20:31;;;;;;;14.90;5.65;;;5.10;99.90;;;;;;5072845;28;19920;-37
2022/12/06 02:23:16;;;;;;;9.55;5.68;;;5.10;99.90;;;;;;5069569;28;20036;-37
2022/12/06 02:26:09;;;;;;;9.70;5.25;;;5.10;99.90;;;;;;5066617;28;20551;-37
2022/12/06 02:28:56;;;;;;;9.60;5.72;;;5.10;99.90;;;;;;5066708;28;20118;-37
2022/12/06 02:31:40;;;;;;;8.00;5.50;;;5.10;99.90;;;;;;5071929;28;20045;-37
2022/12/06 02:34:15;;;;;;;7.72;5.30;;;5.10;99.90;;;;;;5073041;28;20523;-37
2022/12/06 02:36:54;;;;;;;13.23;5.47;;;5.10;99.90;;;;;;5072269;28;20036;-37
2022/12/06 02:39:35;;;;;;;9.98;5.53;;;5.10;99.90;;;;;;5072416;28;20517;-37
2022/12/06 02:42:12;;;;;;;12.73;5.55;;;5.10;99.90;;;;;;5067890;28;20032;-37
2022/12/06 02:44:46;;;;;;;8.32;5.40;;;5.10;99.90;;;;;;5070037;28;20044;-37
2022/12/06 02:47:16;;;;;;;9.05;5.05;;;5.10;99.90;;;;;;5071875;28;20049;-37
2022/12/06 02:49:48;;;;;;;10.20;4.63;;;5.10;99.90;;;;;;5070301;28;20063;-37
2022/12/06 02:52:16;;;;;;;7.90;4.50;;;5.00;99.90;;;;;;5072337;28;20040;-36
2022/12/06 02:54:45;;;;;;;9.00;3.90;;;5.00;99.90;;;;;;5071857;28;20090;-37
2022/12/06 02:57:10;;;;;;;9.57;5.30;;;5.00;99.90;;;;;;5072096;28;20040;-37
2022/12/06 02:59:36;;;;;;;7.57;4.28;;;5.00;99.90;;;;;;5054858;28;20048;-37
2022/12/06 03:02:05;;;;;;;8.05;4.10;;;5.00;99.90;;;;;;5071483;28;20048;-37
2022/12/06 03:04:45;;;;;;;10.77;3.85;;;5.00;99.90;;;;;;5072231;28;20494;-37
2022/12/06 03:07:25;;;;;;;6.15;3.75;;;5.00;99.90;;;;;;5068749;28;20123;-37
2022/12/06 03:10:18;;;;;;;6.30;3.90;;;5.00;99.90;;;;;;5054665;28;20119;-36
2022/12/06 03:13:02;;;;;;;6.57;3.95;;;5.00;99.90;;;;;;5070464;28;20028;-37
2022/12/06 03:15:37;;;;;;;;;;;5.00;99.90;;;;;;5070748;28;20401;-37
2022/12/06 03:18:15;;;;;;;6.70;4.13;;;5.00;99.90;;;;;;5069989;28;19920;-37
2022/12/06 03:20:45;;;;;;;9.95;3.88;;;5.00;99.90;;;;;;5070585;28;20074;-37
2022/12/06 03:23:17;;;;;;;9.75;4.10;;;5.00;99.90;;;;;;5073102;28;20037;-37
2022/12/06 03:25:45;;;;;;;7.88;3.63;;;4.90;99.90;;;;;;5069214;28;20386;-37
2022/12/06 03:28:13;;;;;;;5.18;3.25;;;4.90;99.90;;;;;;5071920;28;20103;-37
2022/12/06 03:30:41;;;;;;;9.35;4.13;;;4.90;99.90;;;;;;5068236;28;20041;-37
2022/12/06 03:33:09;;;;;;;6.70;4.15;;;4.90;99.90;;;;;;5071373;28;20037;-36
2022/12/06 03:35:35;;;;;;;7.68;3.67;;;4.90;99.90;;;;;;5071875;28;20072;-37
2022/12/06 03:38:10;;;;;;;8.00;3.60;;;4.90;99.90;;;;;;5072880;28;20036;-36
2022/12/06 03:40:40;;;;;;;6.90;3.50;;;4.90;99.90;;;;;;5071029;28;20093;-36
2022/12/06 03:43:06;;;;;;;5.85;3.22;;;4.90;99.90;;;;;;5071503;28;20585;-37
2022/12/06 03:45:39;;;;;;;6.65;3.30;;;4.90;99.90;;;;;;5071470;28;20486;-37
2022/12/06 03:48:28;;;;;;;5.63;3.40;;;4.80;99.90;;;;;;5071053;28;20490;-37
2022/12/06 03:51:01;;;;;;;5.10;3.08;;;4.90;99.90;;;;;;5068342;28;20115;-37
2022/12/06 03:53:27;;;;;;;4.70;3.17;;;4.80;99.90;;;;;;5070826;28;20033;-37
2022/12/06 03:55:53;;;;;;;4.25;3.00;;;4.80;99.90;;;;;;5071022;28;20046;-37
2022/12/06 03:58:18;;;;;;;6.60;3.03;;;4.80;99.90;;;;;;5071006;28;20040;-37
2022/12/06 04:00:45;;;;;;;5.20;3.15;;;4.80;99.90;;;;;;5070971;28;20260;-37
2022/12/06 04:03:11;;;;;;;5.40;3.20;;;4.70;99.90;;;;;;5072414;28;20401;-37
2022/12/06 04:05:36;;;;;;;6.20;2.95;;;4.70;99.90;;;;;;5071057;28;20036;-37
2022/12/06 04:08:02;;;;;;;5.65;2.50;;;4.70;99.90;;;;;;5070970;28;20051;-37
2022/12/06 04:10:28;;;;;;;3.28;2.60;;;4.70;99.90;;;;;;5070162;28;20551;-36
2022/12/06 04:12:59;;;;;;;7.07;3.20;;;4.70;99.90;;;;;;5070068;28;20028;-37
2022/12/06 04:15:37;;;;;;;4.35;2.70;;;4.70;99.90;;;;;;5069755;28;20039;-37
2022/12/06 04:18:10;;;;;;;5.40;2.50;;;4.70;99.90;;;;;;5070813;28;20109;-37
2022/12/06 04:23:29;;;;;;;3.55;2.40;;;4.60;99.90;;;;;;5070143;28;20048;-37
2022/12/06 04:25:55;;;;;;;5.32;2.58;;;4.60;99.90;;;;;;5070559;28;20036;-37
2022/12/06 04:39:20;;;;;;;6.25;3.17;;;4.60;99.90;;;;;;5071045;28;20512;-37
2022/12/06 04:44:30;;;;;;;5.40;3.30;;;4.60;99.90;;;;;;5071234;28;20097;-37
2022/12/06 04:46:56;;;;;;;3.03;2.30;;;4.50;99.90;;;;;;5066919;28;20394;-38
2022/12/06 04:49:21;;;;;;;2.97;2.58;;;4.50;99.90;;;;;;5063482;28;20033;-37
2022/12/06 04:51:47;;;;;;;4.10;2.90;;;4.50;99.90;;;;;;5053593;28;20036;-37
2022/12/06 04:54:13;;;;;;;6.97;2.85;;;4.50;99.90;;;;;;5070520;28;20543;-37
2022/12/06 04:56:39;;;;;;;6.68;2.80;;;4.50;99.90;;;;;;5069956;28;20075;-37
2022/12/06 04:59:04;;;;;;;5.65;2.70;;;4.50;99.90;;;;;;5069753;28;20035;-37
2022/12/06 05:01:30;;;;;;;5.32;2.90;;;4.50;99.90;;;;;;5069182;28;20036;-37
2022/12/06 05:03:56;;;;;;;4.47;3.30;;;4.50;99.90;;;;;;5070076;28;20036;-37
2022/12/06 05:06:21;;;;;;;7.13;3.40;;;4.50;99.90;;;;;;5063776;28;20029;-37
2022/12/06 05:08:47;;;;;;;4.57;3.17;;;4.50;99.90;;;;;;5069401;28;20283;-37
2022/12/06 05:11:13;;;;;;;5.60;3.13;;;4.50;99.90;;;;;;5069775;28;20032;-37
2022/12/06 05:13:39;;;;;;;5.55;3.75;;;4.50;99.90;;;;;;5069657;28;20069;-37
2022/12/06 05:16:06;;;;;;;5.93;3.67;;;4.50;99.90;;;;;;5069999;28;20032;-37
2022/12/06 05:18:32;;;;;;;4.53;3.67;;;4.40;99.90;;;;;;5051702;28;20079;-37
2022/12/06 05:21:07;;;;;;;6.47;3.50;;;4.40;99.90;;;;;;5064053;28;20037;-37
2022/12/06 05:23:34;;;;;;;5.78;3.45;;;4.40;99.90;;;;;;5069650;28;20047;-37
2022/12/06 05:26:03;;;;;;;6.63;3.67;;;4.40;99.90;;;;;;5068660;28;20033;-37
2022/12/06 05:28:29;;;;;;;6.82;4.25;;;4.30;99.90;;;;;;5068337;28;20044;-37
2022/12/06 05:30:55;;;;;;;6.95;3.65;;;4.30;99.90;;;;;;5068818;28;20071;-37
2022/12/06 05:33:22;;;;;;;5.80;3.63;;;4.30;99.90;;;;;;5066085;28;20116;-37
2022/12/06 05:35:48;;;;;;;7.65;3.78;;;4.30;99.90;;;;;;5068937;28;20094;-37
2022/12/06 05:38:14;;;;;;;8.23;3.88;;;4.30;99.90;;;;;;5069254;28;20028;-37
2022/12/06 05:40:41;;;;;;;4.88;3.58;;;4.30;99.90;;;;;;5069377;28;20039;-37
2022/12/06 05:43:07;;;;;;;6.90;3.80;;;4.30;99.90;;;;;;5069393;28;20051;-37
2022/12/06 05:45:34;;;;;;;7.68;3.85;;;4.30;99.90;;;;;;5068888;28;20040;-37
2022/12/06 05:48:00;;;;;;;6.57;4.10;;;4.30;99.90;;;;;;5067307;28;20036;-37
2022/12/06 05:50:26;;;;;;;8.43;3.63;;;4.30;99.90;;;;;;5064462;28;20040;-37
2022/12/06 05:52:56;;;;;;;7.22;3.75;;;4.30;99.90;;;;;;5066874;28;20360;-36
2022/12/06 05:55:22;;;;;;;7.93;3.80;;;4.30;99.90;;;;;;5060104;28;20060;-37
2022/12/06 05:57:47;;;;;;;9.48;3.90;;;4.20;99.90;;;;;;5068101;28;20040;-37
2022/12/06 06:00:14;;;;;;;8.25;4.47;;;4.20;99.90;;;;;;5068261;28;20662;-36
2022/12/06 06:02:40;;;;;;;6.00;4.22;;;4.20;99.90;;;;;;5079173;28;20039;-37
2022/12/06 06:05:07;;;;;;;7.60;4.30;;;4.20;99.90;;;;;;5067604;28;20037;-37
2022/12/06 06:07:32;;;;;;;7.32;3.92;;;4.10;99.90;;;;;;5066436;28;20525;-37
2022/12/06 06:09:58;;;;;;;8.93;4.30;;;4.10;99.90;;;;;;5063497;28;20033;-38
2022/12/06 06:12:24;;;;;;;6.60;4.15;;;4.10;99.90;;;;;;5068091;28;20033;-37
2022/12/06 06:14:50;;;;;;;8.57;4.63;;;4.10;99.90;;;;;;5069001;28;20182;-37
2022/12/06 06:17:16;;;;;;;5.97;3.72;;;4.10;99.90;;;;;;5068610;28;20393;-37
2022/12/06 06:19:42;;;;;;;7.72;4.05;;;4.10;99.90;;;;;;5068687;28;20036;-36
2022/12/06 06:22:07;;;;;;;6.43;3.40;;;4.00;99.90;;;;;;5052433;28;20490;-36
2022/12/06 06:24:37;;;;;;;5.47;3.83;;;4.00;99.90;;;;;;5069231;28;20119;-37
2022/12/06 06:27:04;;;;;;;7.47;4.10;;;4.00;99.90;;;;;;5068041;28;20068;-37
2022/12/06 06:29:30;;;;;;;9.18;4.65;;;4.00;99.90;;;;;;5066127;28;20033;-37
2022/12/06 06:31:57;;;;;;;6.53;3.78;;;3.90;99.90;;;;;;5069338;28;20074;-37
2022/12/06 06:34:26;;;;;;;7.18;3.80;;;3.90;99.90;;;;;;5068038;28;20033;-37
2022/12/06 06:36:52;;;;;;;6.78;3.53;;;3.90;99.90;;;;;;5069454;28;20074;-37
2022/12/06 06:39:18;;;;;;;7.43;4.00;;;3.90;99.90;;;;;;5069655;28;20033;-37
2022/12/06 06:41:44;;;;;;;9.48;4.00;;;3.90;99.90;;;;;;5070727;28;20044;-38
2022/12/06 06:44:11;;;;;;;6.60;3.67;;;3.90;99.90;;;;;;5069474;28;20044;-38
2022/12/06 06:46:36;;;;;;;6.07;3.83;;;3.90;99.90;;;;;;5069082;28;20487;-36
2022/12/06 06:49:02;;;;;;;5.95;3.83;;;3.90;99.90;;;;;;5069146;28;20037;-37
2022/12/06 06:51:30;;;;;;;8.55;4.18;;;3.90;99.90;;;;;;5068502;28;20075;-37
2022/12/06 06:53:56;;;;;;;5.78;3.20;;;3.90;99.90;;;;;;5069867;28;20055;-37
2022/12/06 06:56:22;;;;;;;6.32;4.25;;;3.90;99.90;;;;;;5069541;28;20176;-37
2022/12/06 06:58:48;;;;;;;7.95;3.70;;;3.90;99.90;;;;;;5072175;28;20077;-37
2022/12/06 07:01:17;;;;;;;6.25;4.05;;;3.90;99.90;;;;;;5072354;28;20044;-37
2022/12/06 07:03:43;;;;;;;7.75;3.72;;;3.90;99.90;;;;;;5072347;28;20329;-36
2022/12/06 07:06:10;;;;;;;7.80;4.15;;;3.90;99.90;;;;;;5072427;28;20039;-37
2022/12/06 07:08:37;;;;;;;7.85;3.55;;;3.90;99.90;;;;;;5071979;28;20070;-38
2022/12/06 07:11:03;;;;;;;7.18;3.95;;;3.90;99.90;;;;;;5072320;28;20048;-38
2022/12/06 07:13:30;;;;;;;8.32;3.97;;;3.90;99.90;;;;;;5071466;28;20033;-37
2022/12/06 07:15:57;;;;;;;7.07;3.80;;;3.80;99.90;;;;;;5072097;28;20117;-37
2022/12/06 07:18:24;;;;;;;5.93;3.53;;;3.90;99.90;;;;;;5071706;28;20036;-37
2022/12/06 07:21:04;;;;;;;7.57;4.25;;;3.80;99.90;;;;;;5072177;28;20040;-37
2022/12/06 07:23:31;;;;;;;7.82;3.83;;;3.80;99.90;;;;;;5071239;28;20040;-37
2022/12/06 07:26:08;;;;;;;6.68;3.97;;;3.90;99.90;;;;;;5071957;28;20032;-37
2022/12/06 07:28:35;;;;;;;8.43;4.07;;;3.80;99.90;;;;;;5070346;28;20048;-38
2022/12/06 07:31:14;;;;;;;6.50;4.30;;;3.80;99.90;;;;;;5071549;28;20497;-37
2022/12/06 07:33:41;;;;;;;7.85;4.20;;;3.70;99.90;;;;;;5071531;28;20029;-38
2022/12/06 07:36:07;;;;;;;6.15;4.20;;;3.70;99.90;;;;;;5071555;28;20028;-37
2022/12/06 07:38:33;;;;;;;7.82;4.47;;;3.60;99.90;;;;;;5071237;28;20043;-37
2022/12/06 07:41:01;;;;;;;5.45;3.55;;;3.60;99.90;;;;;;5068950;28;20040;-37
2022/12/06 07:46:24;;;;;;;6.35;3.42;;;3.50;99.90;;;;;;5041464;28;20044;-37
2022/12/06 07:48:50;;;;;;;6.28;3.67;;;3.40;99.90;;;;;;5070689;28;20078;-37
2022/12/06 07:51:16;;;;;;;6.03;3.47;;;3.30;99.90;;;;;;5071052;28;20072;-37
2022/12/06 07:53:41;;;;;;;7.10;4.03;;;3.30;99.90;;;;;;5071207;28;20064;-37
2022/12/06 07:56:07;;;;;;;7.22;3.88;;;3.30;99.90;;;;;;5071153;28;20043;-36
2022/12/06 07:58:33;;;;;;;7.03;4.13;;;3.20;99.90;;;;;;5070945;28;20102;-36
2022/12/06 08:01:02;;;;;;;6.40;3.72;;;3.20;99.90;;;;;;5071047;28;20072;-37
2022/12/06 08:03:27;;;;;;;5.35;3.55;;;3.10;99.90;;;;;;5070172;28;20058;-38
2022/12/06 08:05:54;;;;;;;9.13;4.07;;;3.10;99.90;;;;;;5069087;28;20032;-37
2022/12/06 08:08:20;;;;;;;7.78;4.05;;;3.10;99.90;;;;;;5067523;28;20094;-37
2022/12/06 08:10:46;;;;;;;7.03;4.28;;;3.00;99.90;;;;;;5070791;28;20493;-36
2022/12/06 08:13:12;;;;;;;6.05;4.10;;;3.00;99.90;;;;;;5070171;28;20033;-37
2022/12/06 08:15:40;;;;;;;7.68;3.70;;;3.00;99.90;;;;;;5066684;28;20086;-37
2022/12/06 08:18:06;;;;;;;6.45;4.22;;;3.00;99.90;;;;;;5070724;28;20038;-37
2022/12/06 08:20:32;;;;;;;6.97;4.25;;;2.90;99.90;;;;;;5070290;28;20123;-36
2022/12/06 08:22:57;;;;;;;8.63;4.07;;;2.90;99.90;;;;;;5070326;28;20074;-37
2022/12/06 08:25:23;;;;;;;7.85;4.75;;;2.90;99.90;;;;;;5070861;28;20036;-37
2022/12/06 08:27:49;;;;;;;8.95;4.32;;;2.90;99.90;;;;;;5070738;28;20513;-37
2022/12/06 08:30:15;;;;;;;7.93;4.55;;;2.90;99.90;;;;;;5069896;28;20028;-37
2022/12/06 08:32:41;;;;;;;6.28;4.40;;;2.80;99.90;;;;;;5070294;28;20039;-36
2022/12/06 08:35:07;;;;;;;7.43;4.28;;;2.80;99.90;;;;;;5070579;28;20047;-37
2022/12/06 08:37:33;;;;;;;6.32;4.28;;;2.80;99.90;;;;;;5070275;28;20045;-37
2022/12/06 08:39:59;;;;;;;7.05;4.20;;;2.70;99.90;;;;;;5070631;28;20029;-37
2022/12/06 08:42:25;;;;;;;7.22;4.78;;;2.70;99.90;;;;;;5070282;28;20494;-37
2022/12/06 08:44:53;;;;;;;7.65;4.47;;;2.70;99.90;;;;;;5067437;28;20074;-37
2022/12/06 08:47:18;;;;;;;9.40;4.40;;;2.80;99.90;;;;;;5069867;28;20083;-37
2022/12/06 08:49:44;;;;;;;8.52;4.15;;;2.80;99.90;;;;;;5069681;28;20063;-37
2022/12/06 08:52:10;;;;;;;9.00;4.63;;;2.80;99.90;;;;;;5069895;28;20094;-37
2022/12/06 08:54:36;;;;;;;8.40;4.70;;;2.80;99.90;;;;;;5069787;28;20042;-37
2022/12/06 08:57:03;;;;;;;9.95;4.70;;;2.90;99.90;;;;;;5070347;28;20102;-37
2022/12/06 08:59:29;;;;;;;12.25;5.25;;;2.90;99.90;;;;;;5069361;28;20386;-37
2022/12/06 09:01:54;;;;;;;8.85;4.85;;;3.00;99.90;;;;;;5069467;28;20127;-37
2022/12/06 09:04:21;;;;;;;10.18;5.50;;;3.00;99.90;;;;;;5069444;28;20048;-37
2022/12/06 09:06:47;;;;;;;10.15;5.45;;;3.10;99.90;;;;;;5070110;28;20040;-37
2022/12/06 09:09:15;;;;;;;12.18;5.57;;;3.10;99.90;;;;;;5072045;28;20040;-37
2022/12/06 09:11:42;;;;;;;9.38;5.32;;;3.10;99.90;;;;;;5073315;28;20036;-37
2022/12/06 09:14:13;;;;;;;10.73;5.63;;;3.20;99.90;;;;;;5073724;28;20497;-37
2022/12/06 09:16:42;;;;;;;11.25;5.40;;;3.40;99.90;;;;;;5074887;28;20032;-37
2022/12/06 09:19:09;;;;;;;9.35;5.28;;;3.60;99.90;;;;;;5073901;28;20456;-37
2022/12/06 09:21:38;;;;;;;7.45;5.00;;;3.80;99.90;;;;;;5068620;28;20049;-37
2022/12/06 09:24:04;;;;;;;7.63;4.90;;;4.00;99.90;;;;;;5069231;28;20413;-37
2022/12/06 09:26:30;;;;;;;8.38;4.85;;;4.30;99.90;;;;;;5067705;28;20055;-37
2022/12/06 09:28:57;;;;;;;7.43;5.20;;;4.90;99.90;;;;;;5071280;28;20302;-37
2022/12/06 09:31:24;;;;;;;8.10;4.85;;;5.70;99.90;;;;;;5069462;28;20043;-38
2022/12/06 09:33:51;;;;;;;7.78;4.10;;;6.60;99.90;;;;;;5071982;28;20032;-38
2022/12/06 09:36:21;;;;;;;5.72;3.47;;;7.60;99.90;;;;;;5071590;28;20150;-37
2022/12/06 09:38:51;;;;;;;3.22;2.58;;;8.40;99.90;;;;;;5071838;28;20033;-37
2022/12/06 09:41:38;;;;;;;4.38;3.00;;;8.90;99.90;;;;;;5066465;28;20086;-38
2022/12/06 09:44:06;;;;;;;5.15;3.78;;;8.90;99.90;;;;;;5068387;28;20037;-37
2022/12/06 09:46:32;;;;;;;4.68;3.47;;;9.20;99.90;;;;;;5072782;28;20040;-37
2022/12/06 09:48:58;;;;;;;6.68;4.35;;;9.60;99.90;;;;;;5067476;28;20111;-38
2022/12/06 09:51:48;;;;;;;10.95;6.22;;;10.00;99.90;;;;;;5071622;28;20036;-38
2022/12/06 09:54:23;;;;;;;7.28;4.72;;;10.30;99.90;;;;;;5068295;28;20036;-38
2022/12/06 09:57:20;;;;;;;4.60;3.42;;;10.00;99.90;;;;;;5071420;28;20082;-37
2022/12/06 09:59:49;;;;;;;5.75;4.22;;;9.30;99.90;;;;;;5084736;28;20453;-38
2022/12/06 10:02:27;;;;;;;3.42;2.78;;;8.70;99.90;;;;;;5071364;28;20485;-37
2022/12/06 10:05:01;;;;;;;3.22;2.63;;;8.30;99.90;;;;;;5071702;28;20064;-38
2022/12/06 10:07:59;;;;;;;4.93;2.72;;;7.80;99.90;;;;;;5070104;28;20452;-37
2022/12/06 10:10:47;;;;;;;4.70;3.50;;;7.30;99.90;;;;;;5063798;28;20044;-38
2022/12/06 10:13:24;;;;;;;3.35;2.80;;;7.10;99.90;;;;;;5070175;28;20584;-37
2022/12/06 10:16:28;;;;;;;3.10;2.72;;;6.90;99.90;;;;;;5073149;28;20083;-37
2022/12/06 10:19:12;;;;;;;4.03;2.80;;;6.60;99.90;;;;;;5072180;28;20037;-37
2022/12/06 10:21:41;;;;;;;3.13;2.80;;;6.40;99.90;;;;;;5074730;28;20036;-38
2022/12/06 10:24:22;;;;;;;4.88;3.03;;;6.40;99.90;;;;;;5074701;28;20032;-37
2022/12/06 10:26:53;;;;;;;5.05;3.53;;;6.30;99.90;;;;;;5072302;28;20047;-38
2022/12/06 10:29:21;;;;;;;4.50;3.35;;;6.20;99.90;;;;;;5074523;28;20090;-37
2022/12/06 10:32:17;;;;;;;4.47;3.15;;;6.20;99.90;;;;;;5073619;28;20064;-38
2022/12/06 10:34:49;;;;;;;4.95;3.20;;;6.30;99.90;;;;;;5074207;28;20044;-38
2022/12/06 10:37:36;;;;;;;4.95;3.90;;;6.40;99.90;;;;;;5071449;28;20090;-38
2022/12/06 10:40:13;;;;;;;5.78;3.65;;;6.80;99.90;;;;;;5071342;28;20033;-37
2022/12/06 10:43:03;;;;;;;4.25;3.05;;;7.30;99.90;;;;;;5072914;28;20105;-38
2022/12/06 10:48:26;;;;;;;2.95;2.50;;;9.40;99.90;;;;;;5075427;28;20040;-38
2022/12/06 10:51:02;;;;;;;2.58;2.30;;;10.30;99.90;;;;;;5075839;28;20033;-38
2022/12/06 10:53:31;;;;;;;2.83;2.20;;;10.90;99.90;;;;;;5073558;28;20112;-38
2022/12/06 10:56:01;;;;;;;2.47;2.08;;;11.30;99.90;;;;;;5074564;28;20129;-38
2022/12/06 10:58:52;;;;;;;4.05;2.03;;;11.60;99.90;;;;;;5075728;28;20039;-38
2022/12/06 11:01:22;;;;;;;3.33;2.20;;;11.60;99.90;;;;;;5071507;28;20390;-38
2022/12/06 11:04:07;;;;;;;3.72;2.00;;;12.10;99.90;;;;;;5074835;28;20033;-38
2022/12/06 11:06:45;;;;;;;2.30;1.95;;;12.60;99.90;;;;;;5069125;28;20091;-37
2022/12/06 11:09:29;;;;;;;3.22;2.20;;;13.00;99.90;;;;;;5069261;28;20032;-38
2022/12/06 11:11:55;;;;;;;;;;;13.00;99.90;;;;;;5072916;28;20036;-37
2022/12/06 11:14:37;;;;;;;4.18;2.15;;;12.70;99.90;;;;;;5074627;28;19920;-37
2022/12/06 11:17:20;;;;;;;2.00;1.80;;;12.50;99.90;;;;;;5066025;28;20064;-38
2022/12/06 11:19:51;;;;;;;3.28;2.20;;;12.20;99.90;;;;;;5067138;28;20032;-38
2022/12/06 11:22:35;;;;;;;2.38;1.80;;;12.10;99.90;;;;;;5071490;28;20111;-38
2022/12/06 11:25:27;;;;;;;3.65;1.95;;;12.10;99.90;;;;;;5067937;28;20501;-38
2022/12/06 11:28:20;;;;;;;3.45;1.65;;;11.90;99.90;;;;;;5057208;28;20106;-38
2022/12/06 11:30:53;;;;;;;2.60;1.58;;;12.10;99.90;;;;;;5068394;28;20110;-38
2022/12/06 11:33:24;;;;;;;2.75;1.63;;;11.90;99.90;;;;;;5073457;28;20033;-38
2022/12/06 11:35:50;;;;;;;2.60;2.08;;;11.80;99.90;;;;;;5069338;28;20032;-38
2022/12/06 11:38:17;;;;;;;4.60;2.20;;;11.50;99.90;;;;;;5072964;28;20511;-38
2022/12/06 11:40:49;;;;;;;3.58;1.98;;;11.20;99.90;;;;;;5073690;28;20036;-37
2022/12/06 11:43:26;;;;;;;6.60;2.42;;;10.50;99.90;;;;;;5069992;28;20059;-38
2022/12/06 11:45:53;;;;;;;3.22;2.10;;;10.00;99.90;;;;;;5073497;28;20131;-37
2022/12/06 11:48:22;;;;;;;3.65;1.80;;;9.50;99.90;;;;;;5073135;28;20444;-38
2022/12/06 11:50:49;;;;;;;3.55;2.00;;;9.10;99.90;;;;;;5069268;28;20036;-38
2022/12/06 11:53:24;;;;;;;4.03;2.20;;;8.80;99.90;;;;;;5072857;28;20033;-39
2022/12/06 11:55:57;;;;;;;2.58;1.98;;;8.40;99.90;;;;;;5068563;28;20041;-38
2022/12/06 11:58:42;;;;;;;3.15;1.63;;;8.20;99.90;;;;;;5073496;28;20446;-38
2022/12/06 12:01:13;;;;;;;3.33;1.90;;;8.10;99.90;;;;;;5072895;28;20028;-38
2022/12/06 12:03:41;;;;;;;3.08;1.90;;;8.10;99.90;;;;;;5072516;28;20033;-37
2022/12/06 12:06:19;;;;;;;2.47;1.60;;;8.10;99.90;;;;;;5072865;28;20029;-38
2022/12/06 12:09:01;;;;;;;2.28;1.75;;;8.10;99.90;;;;;;5072673;28;20044;-38
2022/12/06 12:11:36;;;;;;;3.42;1.67;;;8.00;99.90;;;;;;5071643;28;20249;-37
2022/12/06 12:14:15;;;;;;;2.03;1.75;;;7.90;99.90;;;;;;5072693;28;20071;-37
2022/12/06 12:16:47;;;;;;;2.38;1.70;;;7.90;99.90;;;;;;5065746;28;20431;-37
2022/12/06 12:19:36;;;;;;;1.70;1.60;;;8.00;99.90;;;;;;5061288;28;20035;-38
2022/12/06 12:22:32;;;;;;;4.45;2.00;;;8.20;99.90;;;;;;5061379;28;20043;-38
2022/12/06 12:25:01;;;;;;;2.58;1.80;;;8.20;99.90;;;;;;5058846;28;20405;-37
2022/12/06 12:27:39;;;;;;;4.30;2.30;;;8.20;99.90;;;;;;5061576;28;20043;-37
2022/12/06 12:30:38;;;;;;;3.28;2.00;;;8.10;99.90;;;;;;5063173;28;20494;-37
2022/12/06 12:33:04;;;;;;;2.80;2.25;;;8.00;99.90;;;;;;5058331;28;20555;-37
2022/12/06 12:35:38;;;;;;;3.28;2.00;;;8.00;99.90;;;;;;5060370;28;20033;-37
2022/12/06 12:38:16;;;;;;;4.20;2.20;;;7.90;99.90;;;;;;5062908;28;20037;-37
2022/12/06 12:40:46;;;;;;;5.10;1.98;;;7.70;99.90;;;;;;5066746;28;20033;-40
2022/12/06 12:43:11;;;;;;;4.32;2.42;;;7.70;99.90;;;;;;5067672;28;20100;-37
2022/12/06 12:45:39;;;;;;;3.75;2.40;;;7.60;99.90;;;;;;5062097;28;20064;-37
2022/12/06 12:48:24;;;;;;;4.32;2.00;;;7.50;99.90;;;;;;5070369;28;20090;-37
2022/12/06 12:50:59;;;;;;;6.95;2.22;;;7.40;99.90;;;;;;5066203;28;20036;-37
2022/12/06 12:53:31;;;;;;;3.78;1.85;;;7.40;99.90;;;;;;5069349;28;20123;-37
2022/12/06 12:56:14;;;;;;;2.88;1.90;;;7.30;99.90;;;;;;5067190;28;20036;-37
2022/12/06 12:58:41;;;;;;;2.72;1.90;;;7.30;99.90;;;;;;5068203;28;20028;-38
2022/12/06 13:01:19;;;;;;;3.40;2.10;;;7.40;99.90;;;;;;5071079;28;20039;-37
2022/12/06 13:03:46;;;;;;;3.40;2.00;;;7.40;99.90;;;;;;5071154;28;20129;-37
2022/12/06 13:06:30;;;;;;;3.25;2.00;;;7.40;99.90;;;;;;5072912;28;20040;-46
2022/12/06 13:09:01;;;;;;;4.85;1.85;;;7.40;99.90;;;;;;5071814;28;20043;-37
2022/12/06 13:11:27;;;;;;;3.40;2.05;;;7.40;99.90;;;;;;5068479;28;20040;-37
2022/12/06 13:13:55;;;;;;;2.97;2.08;;;7.30;99.90;;;;;;5070553;28;20072;-37
2022/12/06 13:16:31;;;;;;;3.92;1.90;;;7.40;99.90;;;;;;5069917;28;20371;-37
2022/12/06 13:18:57;;;;;;;3.63;1.98;;;7.50;99.90;;;;;;5065366;28;20090;-38
2022/12/06 13:21:36;;;;;;;2.88;1.92;;;7.50;99.90;;;;;;5070805;28;20102;-37
2022/12/06 13:24:10;;;;;;;3.05;2.03;;;7.50;99.90;;;;;;5072310;28;20098;-37
2022/12/06 13:26:45;;;;;;;5.70;2.05;;;7.50;99.90;;;;;;5070458;28;20091;-37
2022/12/06 13:29:17;;;;;;;5.18;2.00;;;7.50;99.90;;;;;;5068717;28;20036;-37
2022/12/06 13:31:44;;;;;;;3.28;2.03;;;7.50;99.90;;;;;;5069334;28;20089;-38
2022/12/06 13:34:32;;;;;;;2.80;2.00;;;7.40;99.90;;;;;;5053006;28;20040;-37
2022/12/06 13:36:58;;;;;;;5.22;1.90;;;7.40;99.90;;;;;;5073183;28;20048;-37